Time;durP1;ratioP1;P1;durP2;ratioP2;P2;SDS_P1;SDS_P2;PMS_P1;PMS_P2;Temp;Humidity;BMP_temperature;BMP_pressure;BME280_temperature;BME280_humidity;BME280_pressure;Samples;Min_cycle;Max_cycle;Signal;HPM_P1;HPM_P2
2022/06/03 00:01:03;;;;;;;;;;;;;;;;;;4998719;28;19945;-23
2022/06/03 00:03:29;;;;;;;;;;;;;;;;;;4998423;28;20345;-23
2022/06/03 00:05:55;;;;;;;;;;;;;;;;;;4998885;28;20325;-23
2022/06/03 00:08:21;;;;;;;;;;;;;;;;;;4998818;28;19914;-22
2022/06/03 00:10:47;;;;;;;;;;;;;;;;;;4998452;28;20317;-22
2022/06/03 00:13:13;;;;;;;;;;;;;;;;;;4998507;28;19945;-22
2022/06/03 00:15:39;;;;;;;;;;;;;;;;;;4998439;28;20320;-23
2022/06/03 00:18:05;;;;;;;;;;;;;;;;;;4998417;28;19914;-22
2022/06/03 00:20:31;;;;;;;;;;;;;;;;;;4998907;28;20244;-25
2022/06/03 00:22:57;;;;;;;;;;;;;;;;;;4998563;28;19909;-22
2022/06/03 00:25:23;;;;;;;;;;;;;;;;;;4997931;28;20009;-23
2022/06/03 00:27:50;;;;;;;;;;;;;;;;;;4998529;28;20302;-22
2022/06/03 00:30:16;;;;;;;;;;;;;;;;;;4998437;28;20252;-23
2022/06/03 00:32:43;;;;;;;;;;;;;;;;;;4997071;28;19917;-22
2022/06/03 00:35:09;;;;;;;;;;;;;;;;;;4998372;28;20234;-23
2022/06/03 00:37:36;;;;;;;;;;;;;;;;;;4998111;28;20404;-23
2022/06/03 00:40:01;;;;;;;;;;;;;;;;;;4998081;28;19952;-23
2022/06/03 00:42:27;;;;;;;;;;;;;;;;;;4998020;28;19953;-23
2022/06/03 00:44:53;;;;;;;;;;;;;;;;;;4997005;28;19918;-22
2022/06/03 00:47:19;;;;;;;;;;;;;;;;;;4997966;28;19956;-22
2022/06/03 00:49:45;;;;;;;;;;;;;;;;;;4998129;28;19918;-23
2022/06/03 00:52:11;;;;;;;;;;;;;;;;;;4998018;28;19925;-22
2022/06/03 00:54:37;;;;;;;;;;;;;;;;;;4998072;28;20253;-23
2022/06/03 00:57:03;;;;;;;;;;;;;;;;;;4998004;28;19914;-22
2022/06/03 00:59:29;;;;;;;;;;;;;;;;;;4997576;28;19925;-22
2022/06/03 01:01:55;;;;;;;;;;;;;;;;;;4997790;28;19925;-23
2022/06/03 01:04:21;;;;;;;;;;;;;;;;;;4997478;28;20329;-23
2022/06/03 01:06:48;;;;;;;;;;;;;;;;;;4998112;28;19910;-23
2022/06/03 01:09:14;;;;;;;;;;;;;;;;;;4996539;28;19914;-23
2022/06/03 01:11:40;;;;;;;;;;;;;;;;;;4996404;28;19918;-23
2022/06/03 01:14:06;;;;;;;;;;;;;;;;;;4997966;28;19914;-22
2022/06/03 01:16:32;;;;;;;;;;;;;;;;;;4997905;28;20343;-23
2022/06/03 01:18:58;;;;;;;;;;;;;;;;;;4997305;28;19914;-24
2022/06/03 01:21:24;;;;;;;;;;;;;;;;;;4997553;28;19906;-23
2022/06/03 01:23:50;;;;;;;;;;;;;;;;;;4997119;28;19914;-22
2022/06/03 01:26:16;;;;;;;;;;;;;;;;;;4997133;28;19906;-22
2022/06/03 01:28:42;;;;;;;;;;;;;;;;;;4997938;28;19918;-25
2022/06/03 01:31:08;;;;;;;;;;;;;;;;;;4997306;28;19914;-24
2022/06/03 01:33:34;;;;;;;;;;;;;;;;;;4996966;28;19925;-23
2022/06/03 01:36:00;;;;;;;;;;;;;;;;;;4996085;28;20272;-22
2022/06/03 01:38:26;;;;;;;;;;;;;;;;;;4994972;28;19913;-22
2022/06/03 01:40:52;;;;;;;;;;;;;;;;;;4997416;28;19917;-22
2022/06/03 01:43:18;;;;;;;;;;;;;;;;;;4996986;28;20304;-22
2022/06/03 01:45:44;;;;;;;;;;;;;;;;;;4997400;28;19917;-24
2022/06/03 01:48:10;;;;;;;;;;;;;;;;;;4996970;28;19949;-22
2022/06/03 01:50:36;;;;;;;;;;;;;;;;;;4996601;28;20388;-22
2022/06/03 01:53:02;;;;;;;;;;;;;;;;;;4996615;28;19918;-22
2022/06/03 01:55:28;;;;;;;;;;;;;;;;;;4996895;28;19984;-22
2022/06/03 01:57:54;;;;;;;;;;;;;;;;;;4996859;28;19918;-23
2022/06/03 02:00:20;;;;;;;;;;;;;;;;;;4996518;28;19924;-23
2022/06/03 02:02:47;;;;;;;;;;;;;;;;;;4996547;28;19996;-23
2022/06/03 02:05:13;;;;;;;;;;;;;;;;;;4996720;28;19914;-23
2022/06/03 02:07:40;;;;;;;;;;;;;;;;;;4996382;28;19918;-23
2022/06/03 02:10:06;;;;;;;;;;;;;;;;;;4996624;28;19988;-22
2022/06/03 02:12:32;;;;;;;;;;;;;;;;;;4996487;28;19922;-23
2022/06/03 02:14:58;;;;;;;;;;;;;;;;;;4996828;28;19917;-23
2022/06/03 02:17:24;;;;;;;;;;;;;;;;;;4996494;28;19914;-24
2022/06/03 02:19:50;;;;;;;;;;;;;;;;;;4996193;28;20348;-23
2022/06/03 02:22:16;;;;;;;;;;;;;;;;;;4996097;28;19914;-23
2022/06/03 02:24:42;;;;;;;;;;;;;;;;;;4996369;28;19964;-22
2022/06/03 02:27:09;;;;;;;;;;;;;;;;;;4996372;28;19924;-22
2022/06/03 02:32:20;;;;;;;;;;;;;;;;;;4995986;28;19928;-23
2022/06/03 02:34:46;;;;;;;;;;;;;;;;;;4996015;28;20000;-23
2022/06/03 02:37:12;;;;;;;;;;;;;;;;;;4996000;28;20001;-24
2022/06/03 02:39:38;;;;;;;;;;;;;;;;;;4995934;28;19992;-23
2022/06/03 02:42:04;;;;;;;;;;;;;;;;;;4996129;28;20284;-22
2022/06/03 02:44:30;;;;;;;;;;;;;;;;;;4995847;28;19918;-22
2022/06/03 02:46:56;;;;;;;;;;;;;;;;;;4995855;28;19939;-23
2022/06/03 02:49:23;;;;;;;;;;;;;;;;;;4995527;28;19969;-22
2022/06/03 02:51:49;;;;;;;;;;;;;;;;;;4995658;28;20073;-23
2022/06/03 02:54:15;;;;;;;;;;;;;;;;;;4995766;28;20365;-23
2022/06/03 02:56:41;;;;;;;;;;;;;;;;;;4995801;28;19953;-23
2022/06/03 02:59:08;;;;;;;;;;;;;;;;;;4995672;28;19921;-23
2022/06/03 03:01:34;;;;;;;;;;;;;;;;;;4996268;28;19906;-22
2022/06/03 03:04:00;;;;;;;;;;;;;;;;;;4995432;28;19945;-22
2022/06/03 03:06:26;;;;;;;;;;;;;;;;;;4995663;28;19907;-24
2022/06/03 03:08:52;;;;;;;;;;;;;;;;;;4995588;28;19993;-22
2022/06/03 03:11:18;;;;;;;;;;;;;;;;;;4995574;28;19922;-23
2022/06/03 03:13:44;;;;;;;;;;;;;;;;;;4995482;28;19914;-23
2022/06/03 03:16:10;;;;;;;;;;;;;;;;;;4995599;28;20234;-22
2022/06/03 03:18:36;;;;;;;;;;;;;;;;;;4996082;28;20001;-23
2022/06/03 03:21:02;;;;;;;;;;;;;;;;;;4995446;28;20318;-23
2022/06/03 03:23:28;;;;;;;;;;;;;;;;;;4995442;28;19921;-23
2022/06/03 03:25:54;;;;;;;;;;;;;;;;;;4995479;28;19909;-22
2022/06/03 03:28:20;;;;;;;;;;;;;;;;;;4995725;28;19945;-23
2022/06/03 03:30:46;;;;;;;;;;;;;;;;;;4995387;28;19965;-23
2022/06/03 03:33:12;;;;;;;;;;;;;;;;;;4995897;28;19914;-23
2022/06/03 03:35:38;;;;;;;;;;;;;;;;;;4995407;28;19984;-23
2022/06/03 03:38:04;;;;;;;;;;;;;;;;;;4994422;28;19992;-22
2022/06/03 03:40:30;;;;;;;;;;;;;;;;;;4994383;28;19913;-24
2022/06/03 03:42:56;;;;;;;;;;;;;;;;;;4995451;28;20276;-22
2022/06/03 03:45:22;;;;;;;;;;;;;;;;;;4994284;28;19910;-23
2022/06/03 03:47:48;;;;;;;;;;;;;;;;;;4995266;28;20337;-23
2022/06/03 03:50:14;;;;;;;;;;;;;;;;;;4995171;28;19921;-23
2022/06/03 03:52:40;;;;;;;;;;;;;;;;;;4995397;28;20250;-22
2022/06/03 03:55:06;;;;;;;;;;;;;;;;;;4995196;28;20052;-21
2022/06/03 03:57:32;;;;;;;;;;;;;;;;;;4995137;28;19909;-22
2022/06/03 03:59:58;;;;;;;;;;;;;;;;;;4995574;28;20044;-22
2022/06/03 04:02:24;;;;;;;;;;;;;;;;;;4998048;28;19914;-21
2022/06/03 04:04:53;;;;;;;;;;;;;;;;;;4998384;28;19918;-24
2022/06/03 04:07:19;;;;;;;;;;;;;;;;;;4998392;28;20056;-23
2022/06/03 04:09:45;;;;;;;;;;;;;;;;;;4998374;28;19942;-23
2022/06/03 04:12:11;;;;;;;;;;;;;;;;;;4998210;28;19950;-23
2022/06/03 04:14:37;;;;;;;;;;;;;;;;;;4998235;28;19922;-23
2022/06/03 04:17:03;;;;;;;;;;;;;;;;;;4998409;28;19910;-22
2022/06/03 04:19:29;;;;;;;;;;;;;;;;;;4997243;28;20305;-22
2022/06/03 04:21:55;;;;;;;;;;;;;;;;;;4997086;28;19921;-23
2022/06/03 04:24:21;;;;;;;;;;;;;;;;;;4998724;28;19918;-24
2022/06/03 04:26:47;;;;;;;;;;;;;;;;;;4998379;28;19953;-23
2022/06/03 04:29:34;;;;;;;;;;;;;;;;;;4997125;28;20357;-22
2022/06/03 04:31:59;;;;;;;;;;;;;;;;;;4997818;28;19929;-23
2022/06/03 04:34:25;;;;;;;;;;;;;;;;;;4998520;28;19914;-24
2022/06/03 04:36:51;;;;;;;;;;;;;;;;;;4998050;28;20253;-24
2022/06/03 04:39:17;;;;;;;;;;;;;;;;;;4997002;28;19914;-23
2022/06/03 04:41:43;;;;;;;;;;;;;;;;;;4997855;28;19917;-22
2022/06/03 04:44:09;;;;;;;;;;;;;;;;;;4996881;28;19925;-23
2022/06/03 04:46:35;;;;;;;;;;;;;;;;;;4998064;28;19913;-23
2022/06/03 04:49:01;;;;;;;;;;;;;;;;;;4997658;28;19984;-22
2022/06/03 04:51:28;;;;;;;;;;;;;;;;;;4997362;28;19914;-23
2022/06/03 04:53:54;;;;;;;;;;;;;;;;;;4997539;28;19937;-24
2022/06/03 04:56:21;;;;;;;;;;;;;;;;;;4998205;28;19910;-23
2022/06/03 04:58:47;;;;;;;;;;;;;;;;;;4997663;28;19921;-25
2022/06/03 05:01:13;;;;;;;;;;;;;;;;;;4998119;28;19914;-23
2022/06/03 05:03:39;;;;;;;;;;;;;;;;;;4997184;28;19922;-23
2022/06/03 05:06:05;;;;;;;;;;;;;;;;;;4997519;28;19937;-22
2022/06/03 05:08:31;;;;;;;;;;;;;;;;;;4997499;28;19917;-20
2022/06/03 05:10:57;;;;;;;;;;;;;;;;;;4997276;28;19968;-21
2022/06/03 05:13:23;;;;;;;;;;;;;;;;;;4997010;28;20356;-21
2022/06/03 05:15:49;;;;;;;;;;;;;;;;;;4996218;28;19913;-21
2022/06/03 05:18:15;;;;;;;;;;;;;;;;;;4997251;28;19914;-22
2022/06/03 05:20:41;;;;;;;;;;;;;;;;;;4997364;28;20013;-23
2022/06/03 05:23:07;;;;;;;;;;;;;;;;;;4996991;28;19914;-22
2022/06/03 05:25:34;;;;;;;;;;;;;;;;;;4996993;28;19910;-22
2022/06/03 05:28:00;;;;;;;;;;;;;;;;;;4997244;28;19964;-21
2022/06/03 05:30:26;;;;;;;;;;;;;;;;;;4995894;28;19936;-21
2022/06/03 05:32:52;;;;;;;;;;;;;;;;;;4996823;28;19964;-21
2022/06/03 05:35:18;;;;;;;;;;;;;;;;;;4996135;28;19913;-22
2022/06/03 05:37:44;;;;;;;;;;;;;;;;;;4996590;28;19914;-21
2022/06/03 05:40:10;;;;;;;;;;;;;;;;;;4996893;28;19913;-21
2022/06/03 05:42:36;;;;;;;;;;;;;;;;;;4996708;28;19920;-21
2022/06/03 05:45:02;;;;;;;;;;;;;;;;;;4996455;28;20004;-24
2022/06/03 05:47:29;;;;;;;;;;;;;;;;;;4996622;28;19984;-22
2022/06/03 05:49:55;;;;;;;;;;;;;;;;;;4996856;28;19914;-22
2022/06/03 05:52:21;;;;;;;;;;;;;;;;;;4996351;28;19918;-21
2022/06/03 05:54:47;;;;;;;;;;;;;;;;;;4996311;28;19913;-21
2022/06/03 05:57:13;;;;;;;;;;;;;;;;;;4996242;28;19914;-21
2022/06/03 05:59:39;;;;;;;;;;;;;;;;;;4996332;28;20260;-23
2022/06/03 06:02:05;;;;;;;;;;;;;;;;;;4996318;28;20210;-21
2022/06/03 06:04:31;;;;;;;;;;;;;;;;;;4996107;28;19925;-24
2022/06/03 06:06:57;;;;;;;;;;;;;;;;;;4996434;28;19967;-24
2022/06/03 06:09:23;;;;;;;;;;;;;;;;;;4996301;28;19913;-21
2022/06/03 06:11:49;;;;;;;;;;;;;;;;;;4996005;28;19944;-22
2022/06/03 06:14:15;;;;;;;;;;;;;;;;;;4996090;28;19921;-22
2022/06/03 06:16:41;;;;;;;;;;;;;;;;;;4996106;28;19906;-23
2022/06/03 06:19:07;;;;;;;;;;;;;;;;;;4996573;28;19913;-21
2022/06/03 06:21:33;;;;;;;;;;;;;;;;;;4995992;28;19906;-22
2022/06/03 06:23:59;;;;;;;;;;;;;;;;;;4995499;28;20308;-21
2022/06/03 06:26:25;;;;;;;;;;;;;;;;;;4995993;28;19932;-22
2022/06/03 06:28:52;;;;;;;;;;;;;;;;;;4996296;28;20248;-21
2022/06/03 06:31:18;;;;;;;;;;;;;;;;;;4995794;28;19924;-21
2022/06/03 06:33:43;;;;;;;;;;;;;;;;;;4995729;28;20353;-22
2022/06/03 06:36:10;;;;;;;;;;;;;;;;;;4994732;28;19953;-22
2022/06/03 06:38:36;;;;;;;;;;;;;;;;;;4996101;28;19921;-22
2022/06/03 06:41:02;;;;;;;;;;;;;;;;;;4995631;28;19914;-21
2022/06/03 06:43:28;;;;;;;;;;;;;;;;;;4995670;28;20265;-22
2022/06/03 06:45:54;;;;;;;;;;;;;;;;;;4994571;28;19910;-22
2022/06/03 06:48:20;;;;;;;;;;;;;;;;;;4995423;28;19913;-22
2022/06/03 06:50:46;;;;;;;;;;;;;;;;;;4995665;28;19913;-22
2022/06/03 06:53:12;;;;;;;;;;;;;;;;;;4995752;28;20416;-21
2022/06/03 06:55:38;;;;;;;;;;;;;;;;;;4996058;28;19945;-21
2022/06/03 06:58:04;;;;;;;;;;;;;;;;;;4995516;28;19920;-22
2022/06/03 07:00:30;;;;;;;;;;;;;;;;;;4995497;28;19920;-22
2022/06/03 07:02:56;;;;;;;;;;;;;;;;;;4995292;28;20266;-22
2022/06/03 07:05:22;;;;;;;;;;;;;;;;;;4994350;28;19914;-21
2022/06/03 07:07:48;;;;;;;;;;;;;;;;;;4995192;28;20336;-21
2022/06/03 07:10:14;;;;;;;;;;;;;;;;;;4995291;28;19921;-24
2022/06/03 07:12:40;;;;;;;;;;;;;;;;;;4995226;28;19918;-23
2022/06/03 07:15:06;;;;;;;;;;;;;;;;;;4994403;28;19965;-22
2022/06/03 07:20:17;;;;;;;;;;;;;;;;;;4995511;28;20340;-24
2022/06/03 07:22:44;;;;;;;;;;;;;;;;;;4995136;28;19921;-23
2022/06/03 07:25:10;;;;;;;;;;;;;;;;;;4994176;28;19913;-22
2022/06/03 07:27:36;;;;;;;;;;;;;;;;;;4995747;28;20273;-23
2022/06/03 07:30:02;;;;;;;;;;;;;;;;;;4995242;28;19941;-22
2022/06/03 07:32:28;;;;;;;;;;;;;;;;;;4995434;28;19914;-24
2022/06/03 07:34:54;;;;;;;;;;;;;;;;;;4995515;28;20245;-23
2022/06/03 07:37:20;;;;;;;;;;;;;;;;;;4998250;28;19917;-22
2022/06/03 07:39:48;;;;;;;;;;;;;;;;;;4998902;28;19914;-25
2022/06/03 07:42:14;;;;;;;;;;;;;;;;;;4998894;28;19913;-23
2022/06/03 07:44:40;;;;;;;;;;;;;;;;;;4999253;28;20013;-24
2022/06/03 07:47:06;;;;;;;;;;;;;;;;;;4999176;28;19949;-22
2022/06/03 07:49:32;;;;;;;;;;;;;;;;;;4999019;28;19914;-22
2022/06/03 07:51:58;;;;;;;;;;;;;;;;;;4999173;28;19917;-22
2022/06/03 07:54:24;;;;;;;;;;;;;;;;;;4998710;28;20319;-22
2022/06/03 07:56:50;;;;;;;;;;;;;;;;;;4999282;28;19910;-22
2022/06/03 07:59:17;;;;;;;;;;;;;;;;;;4999162;28;20249;-22
2022/06/03 08:01:43;;;;;;;;;;;;;;;;;;4998493;28;19910;-22
2022/06/03 08:04:09;;;;;;;;;;;;;;;;;;4998297;28;19929;-22
2022/06/03 08:12:05;;;;;;;;;;;;;;;;;;4998405;28;19932;-23
2022/06/03 08:14:31;;;;;;;;;;;;;;;;;;4998392;28;20259;-23
2022/06/03 08:16:57;;;;;;;;;;;;;;;;;;4998416;28;19914;-22
2022/06/03 08:19:23;;;;;;;;;;;;;;;;;;4998817;28;20021;-24
2022/06/03 08:21:52;;;;;;;;;;;;;;;;;;4998133;28;19949;-22
2022/06/03 08:24:18;;;;;;;;;;;;;;;;;;4998109;28;19914;-25
2022/06/03 08:26:44;;;;;;;;;;;;;;;;;;4998450;28;19916;-23
2022/06/03 08:29:10;;;;;;;;;;;;;;;;;;4998081;28;19913;-24
2022/06/03 08:31:36;;;;;;;;;;;;;;;;;;4998280;28;20328;-24
2022/06/03 08:34:02;;;;;;;;;;;;;;;;;;4997983;28;19920;-22
2022/06/03 08:36:29;;;;;;;;;;;;;;;;;;4998571;28;19910;-23
2022/06/03 08:38:55;;;;;;;;;;;;;;;;;;4997856;28;19917;-23
2022/06/03 08:41:21;;;;;;;;;;;;;;;;;;4998014;28;19917;-22
2022/06/03 08:43:47;;;;;;;;;;;;;;;;;;4998437;28;19913;-24
2022/06/03 08:46:14;;;;;;;;;;;;;;;;;;4997919;28;19910;-23
2022/06/03 08:48:40;;;;;;;;;;;;;;;;;;4996719;28;19952;-22
2022/06/03 08:51:06;;;;;;;;;;;;;;;;;;4997937;28;20222;-23
2022/06/03 08:53:32;;;;;;;;;;;;;;;;;;4998144;28;19984;-23
2022/06/03 08:55:59;;;;;;;;;;;;;;;;;;4997591;28;19910;-23
2022/06/03 08:58:26;;;;;;;;;;;;;;;;;;4996621;28;19969;-23
2022/06/03 09:00:52;;;;;;;;;;;;;;;;;;4997515;28;19924;-23
2022/06/03 09:03:18;;;;;;;;;;;;;;;;;;4997382;28;19929;-22
2022/06/03 09:05:44;;;;;;;;;;;;;;;;;;4997383;28;19920;-22
2022/06/03 09:08:10;;;;;;;;;;;;;;;;;;4997209;28;19913;-24
2022/06/03 09:10:36;;;;;;;;;;;;;;;;;;4997679;28;19997;-23
2022/06/03 09:13:02;;;;;;;;;;;;;;;;;;4997028;28;19925;-24
2022/06/03 09:15:28;;;;;;;;;;;;;;;;;;4996999;28;19914;-23
2022/06/03 09:17:54;;;;;;;;;;;;;;;;;;4997699;28;19914;-23
2022/06/03 09:20:20;;;;;;;;;;;;;;;;;;4997104;28;19914;-23
2022/06/03 09:22:46;;;;;;;;;;;;;;;;;;4996937;28;20013;-23
2022/06/03 09:25:12;;;;;;;;;;;;;;;;;;4996818;28;20314;-22
2022/06/03 09:27:39;;;;;;;;;;;;;;;;;;4995866;28;20105;-22
2022/06/03 09:30:04;;;;;;;;;;;;;;;;;;4996907;28;19922;-22
2022/06/03 09:32:30;;;;;;;;;;;;;;;;;;4996930;28;19981;-23
2022/06/03 09:34:57;;;;;;;;;;;;;;;;;;4996726;28;19913;-22
2022/06/03 09:37:23;;;;;;;;;;;;;;;;;;4997127;28;19914;-23
2022/06/03 09:39:48;;;;;;;;;;;;;;;;;;4995594;28;19918;-23
2022/06/03 09:42:15;;;;;;;;;;;;;;;;;;4996692;28;19983;-24
2022/06/03 09:44:41;;;;;;;;;;;;;;;;;;4997018;28;19925;-23
2022/06/03 09:47:07;;;;;;;;;;;;;;;;;;4996729;28;19917;-22
2022/06/03 09:49:33;;;;;;;;;;;;;;;;;;4996834;28;20237;-22
2022/06/03 09:52:00;;;;;;;;;;;;;;;;;;4996752;28;19921;-22
2022/06/03 09:54:28;;;;;;;;;;;;;;;;;;4995641;28;20333;-24
2022/06/03 09:56:56;;;;;;;;;;;;;;;;;;4995325;28;19925;-23
2022/06/03 09:59:22;;;;;;;;;;;;;;;;;;4995388;28;20033;-23
2022/06/03 10:01:48;;;;;;;;;;;;;;;;;;4996661;28;20001;-23
2022/06/03 10:04:15;;;;;;;;;;;;;;;;;;4996019;28;20320;-23
2022/06/03 10:06:46;;;;;;;;;;;;;;;;;;4996248;28;19910;-23
2022/06/03 10:14:41;;;;;;;;;;;;;;;;;;4996432;28;20433;-24
2022/06/03 10:17:07;;;;;;;;;;;;;;;;;;4996261;28;20265;-22
2022/06/03 10:19:33;;;;;;;;;;;;;;;;;;4995917;28;19910;-24
2022/06/03 10:21:59;;;;;;;;;;;;;;;;;;4995805;28;19980;-22
2022/06/03 10:24:25;;;;;;;;;;;;;;;;;;4995619;28;19909;-23
2022/06/03 10:26:52;;;;;;;;;;;;;;;;;;4995738;28;19921;-23
2022/06/03 10:29:18;;;;;;;;;;;;;;;;;;4995967;28;19926;-24
2022/06/03 10:31:44;;;;;;;;;;;;;;;;;;4994485;28;20020;-23
2022/06/03 10:34:10;;;;;;;;;;;;;;;;;;4994711;28;20008;-22
2022/06/03 10:36:36;;;;;;;;;;;;;;;;;;4996024;28;19917;-22
2022/06/03 10:39:02;;;;;;;;;;;;;;;;;;4995734;28;19914;-22
2022/06/03 10:41:28;;;;;;;;;;;;;;;;;;4996305;28;19961;-23
2022/06/03 10:43:54;;;;;;;;;;;;;;;;;;4995719;28;20399;-23
2022/06/03 10:46:20;;;;;;;;;;;;;;;;;;4996116;28;19905;-23
2022/06/03 10:48:46;;;;;;;;;;;;;;;;;;4996138;28;19928;-23
2022/06/03 10:51:12;;;;;;;;;;;;;;;;;;4995632;28;19906;-23
2022/06/03 11:01:52;;;;;;;;;;;;;;;;;;4995796;28;19920;-23
2022/06/03 11:04:18;;;;;;;;;;;;;;;;;;4994423;28;20353;-23
2022/06/03 11:06:44;;;;;;;;;;;;;;;;;;4996016;28;19988;-23
2022/06/03 11:09:10;;;;;;;;;;;;;;;;;;4995442;28;19945;-23
2022/06/03 11:11:36;;;;;;;;;;;;;;;;;;4999112;28;19980;-23
2022/06/03 11:14:02;;;;;;;;;;;;;;;;;;4999985;28;19922;-23
2022/06/03 11:16:28;;;;;;;;;;;;;;;;;;4999461;28;20000;-23
2022/06/03 11:18:55;;;;;;;;;;;;;;;;;;4999165;28;19914;-23
2022/06/03 11:21:22;;;;;;;;;;;;;;;;;;4999590;28;19917;-23
2022/06/03 11:23:48;;;;;;;;;;;;;;;;;;4999299;28;19972;-23
2022/06/03 11:26:14;;;;;;;;;;;;;;;;;;4999669;28;20265;-24
2022/06/03 11:28:40;;;;;;;;;;;;;;;;;;4998992;28;19914;-22
2022/06/03 11:31:06;;;;;;;;;;;;;;;;;;4998798;28;20226;-23
2022/06/03 11:33:32;;;;;;;;;;;;;;;;;;4998699;28;20005;-22
2022/06/03 11:35:58;;;;;;;;;;;;;;;;;;4998782;28;19910;-22
2022/06/03 11:38:25;;;;;;;;;;;;;;;;;;4999122;28;20312;-26
2022/06/03 11:40:52;;;;;;;;;;;;;;;;;;4998770;28;19975;-22
2022/06/03 11:43:18;;;;;;;;;;;;;;;;;;4998727;28;19913;-22
2022/06/03 11:45:44;;;;;;;;;;;;;;;;;;4998865;28;19922;-22
2022/06/03 11:48:10;;;;;;;;;;;;;;;;;;4998785;28;19913;-22
2022/06/03 11:50:36;;;;;;;;;;;;;;;;;;4998811;28;20389;-22
2022/06/03 11:53:02;;;;;;;;;;;;;;;;;;4998623;28;19929;-23
2022/06/03 11:55:28;;;;;;;;;;;;;;;;;;4999322;28;20333;-23
2022/06/03 11:57:56;;;;;;;;;;;;;;;;;;4999030;28;19914;-23
2022/06/03 12:00:22;;;;;;;;;;;;;;;;;;4998653;28;20276;-23
2022/06/03 12:02:48;;;;;;;;;;;;;;;;;;4998591;28;20202;-23
2022/06/03 12:05:14;;;;;;;;;;;;;;;;;;4998419;28;20008;-23
2022/06/03 12:07:41;;;;;;;;;;;;;;;;;;4998480;28;19945;-22
2022/06/03 12:10:07;;;;;;;;;;;;;;;;;;4998683;28;19932;-23
2022/06/03 12:15:18;;;;;;;;;;;;;;;;;;4998400;28;19916;-22
2022/06/03 12:17:44;;;;;;;;;;;;;;;;;;4998027;28;19918;-22
2022/06/03 12:20:10;;;;;;;;;;;;;;;;;;4998687;28;20340;-23
2022/06/03 12:22:36;;;;;;;;;;;;;;;;;;4997108;28;19914;-23
2022/06/03 12:25:02;;;;;;;;;;;;;;;;;;4998671;28;19913;-22
2022/06/03 12:27:28;;;;;;;;;;;;;;;;;;4998219;28;19965;-22
2022/06/03 12:29:54;;;;;;;;;;;;;;;;;;4998194;28;19976;-22
2022/06/03 12:32:20;;;;;;;;;;;;;;;;;;4997825;28;20348;-22
2022/06/03 12:34:46;;;;;;;;;;;;;;;;;;4997885;28;19914;-22
2022/06/03 12:37:12;;;;;;;;;;;;;;;;;;4998505;28;20001;-22
2022/06/03 12:39:38;;;;;;;;;;;;;;;;;;4997795;28;19921;-22
2022/06/03 12:42:04;;;;;;;;;;;;;;;;;;4997781;28;19910;-23
2022/06/03 12:44:30;;;;;;;;;;;;;;;;;;4997697;28;20008;-22
2022/06/03 12:46:56;;;;;;;;;;;;;;;;;;4997651;28;19917;-24
2022/06/03 12:49:22;;;;;;;;;;;;;;;;;;4998068;28;19916;-23
2022/06/03 12:51:48;;;;;;;;;;;;;;;;;;4997486;28;19917;-22
2022/06/03 12:54:14;;;;;;;;;;;;;;;;;;4997709;28;19920;-22
2022/06/03 12:56:40;;;;;;;;;;;;;;;;;;4997444;28;19912;-22
2022/06/03 12:59:06;;;;;;;;;;;;;;;;;;4997337;28;20230;-23
2022/06/03 13:01:33;;;;;;;;;;;;;;;;;;4997879;28;20004;-25
2022/06/03 13:03:59;;;;;;;;;;;;;;;;;;4997045;28;19921;-22
2022/06/03 13:06:25;;;;;;;;;;;;;;;;;;4997682;28;19905;-22
2022/06/03 13:11:36;;;;;;;;;;;;;;;;;;4997400;28;19925;-22
2022/06/03 13:14:02;;;;;;;;;;;;;;;;;;4997251;28;19913;-21
2022/06/03 13:16:28;;;;;;;;;;;;;;;;;;4997152;28;19921;-22
2022/06/03 13:18:54;;;;;;;;;;;;;;;;;;4997535;28;19963;-22
2022/06/03 13:21:20;;;;;;;;;;;;;;;;;;4997076;28;19956;-22
2022/06/03 13:23:46;;;;;;;;;;;;;;;;;;4996869;28;19914;-22
2022/06/03 13:26:12;;;;;;;;;;;;;;;;;;4996962;28;19933;-22
2022/06/03 13:28:38;;;;;;;;;;;;;;;;;;4997461;28;20000;-22
2022/06/03 13:31:04;;;;;;;;;;;;;;;;;;4996747;28;20397;-23
2022/06/03 13:33:30;;;;;;;;;;;;;;;;;;4995800;28;19914;-22
2022/06/03 13:35:56;;;;;;;;;;;;;;;;;;4997154;28;19937;-23
2022/06/03 13:38:27;;;;;;;;;;;;;;;;;;4996740;28;20310;-22
2022/06/03 13:43:37;;;;;;;;;;;;;;;;;;4996692;28;19972;-22
2022/06/03 13:46:03;;;;;;;;;;;;;;;;;;4996709;28;19918;-22
2022/06/03 13:48:30;;;;;;;;;;;;;;;;;;4996640;28;19918;-23
2022/06/03 13:50:56;;;;;;;;;;;;;;;;;;4996911;28;20341;-25
2022/06/03 13:53:22;;;;;;;;;;;;;;;;;;4996706;28;20375;-22
2022/06/03 13:55:48;;;;;;;;;;;;;;;;;;4996785;28;20390;-23
2022/06/03 13:58:14;;;;;;;;;;;;;;;;;;4996557;28;19914;-23
2022/06/03 14:00:40;;;;;;;;;;;;;;;;;;4996759;28;19910;-22
2022/06/03 14:03:06;;;;;;;;;;;;;;;;;;4996209;28;20310;-22
2022/06/03 14:05:32;;;;;;;;;;;;;;;;;;4996966;28;19914;-22
2022/06/03 14:07:59;;;;;;;;;;;;;;;;;;4996951;28;19914;-23
2022/06/03 14:10:25;;;;;;;;;;;;;;;;;;4995393;28;20183;-22
2022/06/03 14:12:51;;;;;;;;;;;;;;;;;;4996064;28;19968;-22
2022/06/03 14:15:17;;;;;;;;;;;;;;;;;;4995167;28;19921;-25
2022/06/03 14:17:43;;;;;;;;;;;;;;;;;;4996884;28;19968;-22
2022/06/03 14:20:10;;;;;;;;;;;;;;;;;;4995935;28;19957;-22
2022/06/03 14:22:37;;;;;;;;;;;;;;;;;;4994957;28;20008;-23
2022/06/03 14:25:03;;;;;;;;;;;;;;;;;;4995095;28;20344;-25
2022/06/03 14:27:29;;;;;;;;;;;;;;;;;;4995983;28;19965;-26
2022/06/03 14:29:55;;;;;;;;;;;;;;;;;;4996723;28;19963;-22
2022/06/03 14:32:21;;;;;;;;;;;;;;;;;;4995760;28;20359;-24
2022/06/03 14:34:47;;;;;;;;;;;;;;;;;;4995911;28;19913;-22
2022/06/03 14:37:13;;;;;;;;;;;;;;;;;;4995936;28;19936;-24
2022/06/03 14:39:39;;;;;;;;;;;;;;;;;;4995762;28;19952;-22
2022/06/03 14:42:05;;;;;;;;;;;;;;;;;;4996173;28;20004;-24
2022/06/03 14:44:31;;;;;;;;;;;;;;;;;;4995187;28;19964;-22
2022/06/03 14:46:57;;;;;;;;;;;;;;;;;;4996199;28;20346;-22
2022/06/03 14:49:23;;;;;;;;;;;;;;;;;;4995661;28;19910;-23
2022/06/03 14:51:49;;;;;;;;;;;;;;;;;;4994548;28;20012;-23
2022/06/03 14:54:15;;;;;;;;;;;;;;;;;;4995664;28;20297;-22
2022/06/03 14:56:41;;;;;;;;;;;;;;;;;;4994704;28;19912;-23
2022/06/03 14:59:07;;;;;;;;;;;;;;;;;;4995820;28;19937;-23
2022/06/03 15:01:40;;;;;;;;;;;;;;;;;;4994570;28;19917;-22
2022/06/03 15:04:06;;;;;;;;;;;;;;;;;;4995540;28;20369;-22
2022/06/03 15:06:32;;;;;;;;;;;;;;;;;;4995985;28;19952;-23
2022/06/03 15:08:58;;;;;;;;;;;;;;;;;;4995445;28;19918;-23
2022/06/03 15:11:25;;;;;;;;;;;;;;;;;;4995294;28;19993;-24
2022/06/03 15:13:52;;;;;;;;;;;;;;;;;;4995415;28;19983;-23
2022/06/03 15:16:18;;;;;;;;;;;;;;;;;;4994361;28;19914;-23
2022/06/03 15:18:44;;;;;;;;;;;;;;;;;;4995209;28;19920;-23
2022/06/03 15:21:14;;;;;;;;;;;;;;;;;;4995342;28;19910;-23
2022/06/03 15:23:40;;;;;;;;;;;;;;;;;;4995193;28;20269;-22
2022/06/03 15:26:06;;;;;;;;;;;;;;;;;;4995640;28;20241;-22
2022/06/03 15:28:32;;;;;;;;;;;;;;;;;;4994169;28;19914;-21
2022/06/03 15:30:58;;;;;;;;;;;;;;;;;;4995344;28;20226;-22
2022/06/03 15:33:24;;;;;;;;;;;;;;;;;;4995025;28;19918;-22
2022/06/03 15:35:50;;;;;;;;;;;;;;;;;;4995167;28;19917;-21
2022/06/03 15:38:16;;;;;;;;;;;;;;;;;;4995050;28;19946;-22
2022/06/03 15:40:42;;;;;;;;;;;;;;;;;;4995047;28;19941;-23
2022/06/03 15:43:09;;;;;;;;;;;;;;;;;;4994960;28;19914;-22
2022/06/03 15:45:35;;;;;;;;;;;;;;;;;;4994895;28;19949;-21
2022/06/03 15:48:01;;;;;;;;;;;;;;;;;;4995030;28;20033;-21
2022/06/03 15:50:27;;;;;;;;;;;;;;;;;;4995416;28;20436;-23
2022/06/03 15:52:53;;;;;;;;;;;;;;;;;;4993908;28;19914;-22
2022/06/03 15:55:19;;;;;;;;;;;;;;;;;;4994994;28;20017;-22
2022/06/03 15:57:45;;;;;;;;;;;;;;;;;;4997252;28;20329;-22
2022/06/03 16:00:15;;;;;;;;;;;;;;;;;;4998779;28;19914;-21
2022/06/03 16:02:41;;;;;;;;;;;;;;;;;;4998686;28;19910;-22
2022/06/03 16:05:07;;;;;;;;;;;;;;;;;;4998261;28;19925;-22
2022/06/03 16:07:33;;;;;;;;;;;;;;;;;;4998462;28;19972;-21
2022/06/03 16:09:59;;;;;;;;;;;;;;;;;;4998545;28;19921;-23
2022/06/03 16:12:25;;;;;;;;;;;;;;;;;;4997182;28;19976;-22
2022/06/03 16:14:51;;;;;;;;;;;;;;;;;;4998165;28;19997;-23
2022/06/03 16:17:17;;;;;;;;;;;;;;;;;;4998213;28;19914;-22
2022/06/03 16:19:43;;;;;;;;;;;;;;;;;;4998408;28;19988;-22
2022/06/03 16:22:09;;;;;;;;;;;;;;;;;;4998102;28;19966;-23
2022/06/03 16:24:38;;;;;;;;;;;;;;;;;;4998317;28;20388;-22
2022/06/03 16:27:04;;;;;;;;;;;;;;;;;;4997984;28;19914;-22
2022/06/03 16:29:30;;;;;;;;;;;;;;;;;;4998159;28;20257;-22
2022/06/03 16:31:56;;;;;;;;;;;;;;;;;;4997771;28;20025;-22
2022/06/03 16:34:22;;;;;;;;;;;;;;;;;;4997856;28;20302;-22
2022/06/03 16:36:48;;;;;;;;;;;;;;;;;;4997753;28;19960;-24
2022/06/03 16:39:14;;;;;;;;;;;;;;;;;;4997728;28;19914;-22
2022/06/03 16:41:40;;;;;;;;;;;;;;;;;;4996769;28;19916;-22
2022/06/03 16:44:06;;;;;;;;;;;;;;;;;;4997592;28;19924;-23
2022/06/03 16:46:32;;;;;;;;;;;;;;;;;;4996651;28;20004;-22
2022/06/03 16:48:58;;;;;;;;;;;;;;;;;;4998008;28;19913;-22
2022/06/03 16:51:24;;;;;;;;;;;;;;;;;;4997522;28;19916;-22
2022/06/03 16:53:50;;;;;;;;;;;;;;;;;;4997774;28;19970;-22
2022/06/03 16:56:16;;;;;;;;;;;;;;;;;;4997581;28;20356;-22
2022/06/03 16:58:42;;;;;;;;;;;;;;;;;;4997651;28;19918;-25
2022/06/03 17:01:12;;;;;;;;;;;;;;;;;;4997536;28;20228;-22
2022/06/03 17:03:38;;;;;;;;;;;;;;;;;;4997254;28;19917;-23
2022/06/03 17:06:04;;;;;;;;;;;;;;;;;;4997452;28;19988;-22
2022/06/03 17:08:30;;;;;;;;;;;;;;;;;;4997172;28;20321;-23
2022/06/03 17:10:56;;;;;;;;;;;;;;;;;;4996478;28;19965;-22